sensor_id;sensor_type;location;lat;lon;timestamp;P1;durP1;ratioP1;P2;durP2;ratioP2
74620;SDS011;64861;47.546;19.254;2023-03-01T00:01:22;7.00;;;3.92;;
74620;SDS011;64861;47.546;19.254;2023-03-01T00:03:50;8.35;;;4.47;;
74620;SDS011;64861;47.546;19.254;2023-03-01T00:06:16;7.63;;;4.13;;
74620;SDS011;64861;47.546;19.254;2023-03-01T00:08:42;7.93;;;4.22;;
74620;SDS011;64861;47.546;19.254;2023-03-01T00:11:21;7.85;;;3.90;;
74620;SDS011;64861;47.546;19.254;2023-03-01T00:13:53;8.75;;;4.47;;
74620;SDS011;64861;47.546;19.254;2023-03-01T00:16:21;8.68;;;4.18;;
74620;SDS011;64861;47.546;19.254;2023-03-01T00:18:48;7.18;;;4.15;;
74620;SDS011;64861;47.546;19.254;2023-03-01T00:21:15;7.72;;;4.43;;
74620;SDS011;64861;47.546;19.254;2023-03-01T00:23:41;8.35;;;4.45;;
74620;SDS011;64861;47.546;19.254;2023-03-01T00:26:11;7.88;;;4.00;;
74620;SDS011;64861;47.546;19.254;2023-03-01T00:28:38;7.78;;;4.25;;
74620;SDS011;64861;47.546;19.254;2023-03-01T00:31:08;6.88;;;3.95;;
74620;SDS011;64861;47.546;19.254;2023-03-01T00:33:35;5.97;;;3.65;;
74620;SDS011;64861;47.546;19.254;2023-03-01T00:36:02;7.90;;;4.00;;
74620;SDS011;64861;47.546;19.254;2023-03-01T00:38:28;7.30;;;4.18;;
74620;SDS011;64861;47.546;19.254;2023-03-01T00:40:54;8.23;;;4.07;;
74620;SDS011;64861;47.546;19.254;2023-03-01T00:43:20;7.28;;;4.40;;
74620;SDS011;64861;47.546;19.254;2023-03-01T00:45:45;7.72;;;4.00;;
74620;SDS011;64861;47.546;19.254;2023-03-01T00:48:11;7.97;;;3.95;;
74620;SDS011;64861;47.546;19.254;2023-03-01T00:50:36;8.10;;;4.20;;
74620;SDS011;64861;47.546;19.254;2023-03-01T00:53:02;8.05;;;4.18;;
74620;SDS011;64861;47.546;19.254;2023-03-01T00:55:28;7.70;;;4.22;;
74620;SDS011;64861;47.546;19.254;2023-03-01T00:57:53;7.85;;;3.95;;
74620;SDS011;64861;47.546;19.254;2023-03-01T01:00:19;8.18;;;4.10;;
74620;SDS011;64861;47.546;19.254;2023-03-01T01:02:45;7.65;;;4.05;;
74620;SDS011;64861;47.546;19.254;2023-03-01T01:05:11;7.38;;;4.07;;
74620;SDS011;64861;47.546;19.254;2023-03-01T01:07:37;7.53;;;4.15;;
74620;SDS011;64861;47.546;19.254;2023-03-01T01:10:02;6.95;;;4.20;;
74620;SDS011;64861;47.546;19.254;2023-03-01T01:12:28;6.63;;;3.90;;
74620;SDS011;64861;47.546;19.254;2023-03-01T01:14:53;6.95;;;3.83;;
74620;SDS011;64861;47.546;19.254;2023-03-01T01:17:19;7.18;;;3.95;;
74620;SDS011;64861;47.546;19.254;2023-03-01T01:19:45;6.35;;;3.72;;
74620;SDS011;64861;47.546;19.254;2023-03-01T01:22:10;6.70;;;3.97;;
74620;SDS011;64861;47.546;19.254;2023-03-01T01:24:36;6.93;;;3.85;;
74620;SDS011;64861;47.546;19.254;2023-03-01T01:27:01;6.30;;;4.00;;
74620;SDS011;64861;47.546;19.254;2023-03-01T01:29:27;8.73;;;4.15;;
74620;SDS011;64861;47.546;19.254;2023-03-01T01:31:52;7.35;;;4.03;;
74620;SDS011;64861;47.546;19.254;2023-03-01T01:34:19;6.40;;;3.95;;
74620;SDS011;64861;47.546;19.254;2023-03-01T01:36:49;7.28;;;3.92;;
74620;SDS011;64861;47.546;19.254;2023-03-01T01:41:44;7.50;;;4.18;;
74620;SDS011;64861;47.546;19.254;2023-03-01T01:46:36;7.95;;;4.10;;
74620;SDS011;64861;47.546;19.254;2023-03-01T01:49:05;7.10;;;3.75;;
74620;SDS011;64861;47.546;19.254;2023-03-01T01:51:41;6.38;;;3.47;;
74620;SDS011;64861;47.546;19.254;2023-03-01T01:54:12;6.45;;;3.90;;
74620;SDS011;64861;47.546;19.254;2023-03-01T01:56:44;7.05;;;3.63;;
74620;SDS011;64861;47.546;19.254;2023-03-01T01:59:17;6.75;;;3.65;;
74620;SDS011;64861;47.546;19.254;2023-03-01T02:01:42;6.35;;;3.75;;
74620;SDS011;64861;47.546;19.254;2023-03-01T02:04:08;7.47;;;3.72;;
74620;SDS011;64861;47.546;19.254;2023-03-01T02:06:37;6.28;;;3.83;;
74620;SDS011;64861;47.546;19.254;2023-03-01T02:09:08;5.45;;;3.35;;
74620;SDS011;64861;47.546;19.254;2023-03-01T02:11:38;5.63;;;3.53;;
74620;SDS011;64861;47.546;19.254;2023-03-01T02:14:04;7.10;;;4.10;;
74620;SDS011;64861;47.546;19.254;2023-03-01T02:16:30;6.18;;;3.40;;
74620;SDS011;64861;47.546;19.254;2023-03-01T02:18:56;6.68;;;3.95;;
74620;SDS011;64861;47.546;19.254;2023-03-01T02:21:39;5.80;;;3.20;;
74620;SDS011;64861;47.546;19.254;2023-03-01T02:24:17;5.90;;;3.42;;
74620;SDS011;64861;47.546;19.254;2023-03-01T02:27:09;6.47;;;3.30;;
74620;SDS011;64861;47.546;19.254;2023-03-01T02:29:34;6.70;;;3.95;;
74620;SDS011;64861;47.546;19.254;2023-03-01T02:32:00;6.80;;;3.80;;
74620;SDS011;64861;47.546;19.254;2023-03-01T02:34:28;6.00;;;3.20;;
74620;SDS011;64861;47.546;19.254;2023-03-01T02:39:27;6.97;;;3.47;;
74620;SDS011;64861;47.546;19.254;2023-03-01T02:41:56;5.85;;;3.30;;
74620;SDS011;64861;47.546;19.254;2023-03-01T02:44:24;6.25;;;3.67;;
74620;SDS011;64861;47.546;19.254;2023-03-01T02:46:50;5.93;;;3.45;;
74620;SDS011;64861;47.546;19.254;2023-03-01T02:49:25;6.85;;;3.33;;
74620;SDS011;64861;47.546;19.254;2023-03-01T02:52:08;5.93;;;3.17;;
74620;SDS011;64861;47.546;19.254;2023-03-01T02:54:40;5.32;;;3.22;;
74620;SDS011;64861;47.546;19.254;2023-03-01T02:57:06;6.53;;;3.38;;
74620;SDS011;64861;47.546;19.254;2023-03-01T02:59:32;6.55;;;3.40;;
74620;SDS011;64861;47.546;19.254;2023-03-01T03:02:04;5.68;;;3.38;;
74620;SDS011;64861;47.546;19.254;2023-03-01T03:04:31;7.43;;;3.75;;
74620;SDS011;64861;47.546;19.254;2023-03-01T03:06:57;5.93;;;3.42;;
74620;SDS011;64861;47.546;19.254;2023-03-01T03:09:22;5.63;;;3.22;;
74620;SDS011;64861;47.546;19.254;2023-03-01T03:11:48;5.97;;;3.10;;
74620;SDS011;64861;47.546;19.254;2023-03-01T03:14:14;6.25;;;3.17;;
74620;SDS011;64861;47.546;19.254;2023-03-01T03:16:41;5.82;;;3.25;;
74620;SDS011;64861;47.546;19.254;2023-03-01T03:19:08;6.03;;;3.42;;
74620;SDS011;64861;47.546;19.254;2023-03-01T03:21:34;6.70;;;3.58;;
74620;SDS011;64861;47.546;19.254;2023-03-01T03:23:59;5.85;;;3.35;;
74620;SDS011;64861;47.546;19.254;2023-03-01T03:26:25;6.07;;;3.45;;
74620;SDS011;64861;47.546;19.254;2023-03-01T03:28:50;5.72;;;3.50;;
74620;SDS011;64861;47.546;19.254;2023-03-01T03:31:16;5.93;;;3.13;;
74620;SDS011;64861;47.546;19.254;2023-03-01T03:33:41;6.65;;;3.72;;
74620;SDS011;64861;47.546;19.254;2023-03-01T03:36:07;5.63;;;3.13;;
74620;SDS011;64861;47.546;19.254;2023-03-01T03:38:38;6.68;;;3.50;;
74620;SDS011;64861;47.546;19.254;2023-03-01T03:41:06;6.38;;;3.45;;
74620;SDS011;64861;47.546;19.254;2023-03-01T03:43:34;5.78;;;3.47;;
74620;SDS011;64861;47.546;19.254;2023-03-01T03:46:01;6.50;;;3.65;;
74620;SDS011;64861;47.546;19.254;2023-03-01T03:48:31;6.68;;;3.17;;
74620;SDS011;64861;47.546;19.254;2023-03-01T03:51:00;6.13;;;3.22;;
74620;SDS011;64861;47.546;19.254;2023-03-01T03:53:26;5.10;;;2.70;;
74620;SDS011;64861;47.546;19.254;2023-03-01T03:55:53;6.70;;;3.13;;
74620;SDS011;64861;47.546;19.254;2023-03-01T03:58:20;4.82;;;2.83;;
74620;SDS011;64861;47.546;19.254;2023-03-01T04:00:49;5.65;;;3.28;;
74620;SDS011;64861;47.546;19.254;2023-03-01T04:03:17;6.22;;;3.10;;
74620;SDS011;64861;47.546;19.254;2023-03-01T04:05:44;8.00;;;3.22;;
74620;SDS011;64861;47.546;19.254;2023-03-01T04:08:10;7.22;;;3.20;;
74620;SDS011;64861;47.546;19.254;2023-03-01T04:10:37;5.95;;;3.20;;
74620;SDS011;64861;47.546;19.254;2023-03-01T04:13:05;6.05;;;3.28;;
74620;SDS011;64861;47.546;19.254;2023-03-01T04:15:32;6.13;;;3.30;;
74620;SDS011;64861;47.546;19.254;2023-03-01T04:17:58;5.32;;;3.22;;
74620;SDS011;64861;47.546;19.254;2023-03-01T04:20:25;5.43;;;2.95;;
74620;SDS011;64861;47.546;19.254;2023-03-01T04:23:00;5.68;;;2.90;;
74620;SDS011;64861;47.546;19.254;2023-03-01T04:28:24;5.75;;;3.33;;
74620;SDS011;64861;47.546;19.254;2023-03-01T04:31:07;5.20;;;3.03;;
74620;SDS011;64861;47.546;19.254;2023-03-01T04:33:49;6.00;;;3.13;;
74620;SDS011;64861;47.546;19.254;2023-03-01T04:36:18;5.93;;;3.30;;
74620;SDS011;64861;47.546;19.254;2023-03-01T04:38:45;5.80;;;3.35;;
74620;SDS011;64861;47.546;19.254;2023-03-01T04:41:12;6.22;;;3.35;;
74620;SDS011;64861;47.546;19.254;2023-03-01T04:43:39;6.32;;;3.50;;
74620;SDS011;64861;47.546;19.254;2023-03-01T04:46:06;5.97;;;3.20;;
74620;SDS011;64861;47.546;19.254;2023-03-01T04:48:37;5.75;;;3.25;;
74620;SDS011;64861;47.546;19.254;2023-03-01T04:51:03;8.80;;;3.20;;
74620;SDS011;64861;47.546;19.254;2023-03-01T04:53:30;5.72;;;3.40;;
74620;SDS011;64861;47.546;19.254;2023-03-01T04:55:57;5.50;;;3.05;;
74620;SDS011;64861;47.546;19.254;2023-03-01T04:58:23;5.65;;;3.00;;
74620;SDS011;64861;47.546;19.254;2023-03-01T05:00:50;4.93;;;2.95;;
74620;SDS011;64861;47.546;19.254;2023-03-01T05:03:16;5.53;;;3.20;;
74620;SDS011;64861;47.546;19.254;2023-03-01T05:05:43;6.18;;;3.20;;
74620;SDS011;64861;47.546;19.254;2023-03-01T05:08:10;5.25;;;3.03;;
74620;SDS011;64861;47.546;19.254;2023-03-01T05:10:44;6.05;;;3.38;;
74620;SDS011;64861;47.546;19.254;2023-03-01T05:13:11;5.63;;;3.10;;
74620;SDS011;64861;47.546;19.254;2023-03-01T05:15:46;5.25;;;2.90;;
74620;SDS011;64861;47.546;19.254;2023-03-01T05:18:23;5.80;;;2.97;;
74620;SDS011;64861;47.546;19.254;2023-03-01T05:20:51;5.20;;;3.10;;
74620;SDS011;64861;47.546;19.254;2023-03-01T05:23:17;5.35;;;3.22;;
74620;SDS011;64861;47.546;19.254;2023-03-01T05:25:43;5.53;;;3.10;;
74620;SDS011;64861;47.546;19.254;2023-03-01T05:28:12;6.75;;;3.25;;
74620;SDS011;64861;47.546;19.254;2023-03-01T05:30:39;5.60;;;2.95;;
74620;SDS011;64861;47.546;19.254;2023-03-01T05:33:05;4.82;;;2.88;;
74620;SDS011;64861;47.546;19.254;2023-03-01T05:35:35;5.28;;;3.17;;
74620;SDS011;64861;47.546;19.254;2023-03-01T05:38:01;5.60;;;2.92;;
74620;SDS011;64861;47.546;19.254;2023-03-01T05:40:27;5.30;;;2.92;;
74620;SDS011;64861;47.546;19.254;2023-03-01T05:42:54;6.10;;;3.25;;
74620;SDS011;64861;47.546;19.254;2023-03-01T05:45:22;5.03;;;2.85;;
74620;SDS011;64861;47.546;19.254;2023-03-01T05:47:49;5.28;;;2.75;;
74620;SDS011;64861;47.546;19.254;2023-03-01T05:50:16;6.05;;;3.17;;
74620;SDS011;64861;47.546;19.254;2023-03-01T05:52:47;4.47;;;2.72;;
74620;SDS011;64861;47.546;19.254;2023-03-01T05:55:19;4.93;;;2.90;;
74620;SDS011;64861;47.546;19.254;2023-03-01T05:57:45;5.07;;;2.88;;
74620;SDS011;64861;47.546;19.254;2023-03-01T06:00:12;6.25;;;3.05;;
74620;SDS011;64861;47.546;19.254;2023-03-01T06:02:39;5.25;;;2.67;;
74620;SDS011;64861;47.546;19.254;2023-03-01T06:05:06;5.60;;;3.05;;
74620;SDS011;64861;47.546;19.254;2023-03-01T06:07:32;4.95;;;2.90;;
74620;SDS011;64861;47.546;19.254;2023-03-01T06:09:58;6.03;;;2.90;;
74620;SDS011;64861;47.546;19.254;2023-03-01T06:12:24;7.22;;;2.88;;
74620;SDS011;64861;47.546;19.254;2023-03-01T06:14:49;5.47;;;2.88;;
74620;SDS011;64861;47.546;19.254;2023-03-01T06:17:15;6.00;;;3.00;;
74620;SDS011;64861;47.546;19.254;2023-03-01T06:19:40;5.63;;;2.80;;
74620;SDS011;64861;47.546;19.254;2023-03-01T06:22:05;5.70;;;3.13;;
74620;SDS011;64861;47.546;19.254;2023-03-01T06:24:32;6.70;;;2.92;;
74620;SDS011;64861;47.546;19.254;2023-03-01T06:26:58;5.47;;;3.08;;
74620;SDS011;64861;47.546;19.254;2023-03-01T06:29:23;5.30;;;2.75;;
74620;SDS011;64861;47.546;19.254;2023-03-01T06:31:49;5.03;;;2.78;;
74620;SDS011;64861;47.546;19.254;2023-03-01T06:34:14;5.30;;;3.15;;
74620;SDS011;64861;47.546;19.254;2023-03-01T06:36:40;6.47;;;2.78;;
74620;SDS011;64861;47.546;19.254;2023-03-01T06:39:05;8.13;;;3.08;;
74620;SDS011;64861;47.546;19.254;2023-03-01T06:41:31;5.63;;;2.70;;
74620;SDS011;64861;47.546;19.254;2023-03-01T06:43:58;6.53;;;2.75;;
74620;SDS011;64861;47.546;19.254;2023-03-01T06:46:24;7.97;;;2.80;;
74620;SDS011;64861;47.546;19.254;2023-03-01T06:48:49;8.38;;;3.05;;
74620;SDS011;64861;47.546;19.254;2023-03-01T06:51:15;5.70;;;2.95;;
74620;SDS011;64861;47.546;19.254;2023-03-01T06:53:40;5.97;;;2.90;;
74620;SDS011;64861;47.546;19.254;2023-03-01T06:56:06;5.72;;;2.80;;
74620;SDS011;64861;47.546;19.254;2023-03-01T06:58:31;9.82;;;2.72;;
74620;SDS011;64861;47.546;19.254;2023-03-01T07:00:57;11.10;;;2.83;;
74620;SDS011;64861;47.546;19.254;2023-03-01T07:03:23;10.98;;;3.10;;
74620;SDS011;64861;47.546;19.254;2023-03-01T07:05:49;6.30;;;3.00;;
74620;SDS011;64861;47.546;19.254;2023-03-01T07:08:17;7.68;;;3.03;;
74620;SDS011;64861;47.546;19.254;2023-03-01T07:10:43;8.55;;;2.75;;
74620;SDS011;64861;47.546;19.254;2023-03-01T07:13:09;8.98;;;2.90;;
74620;SDS011;64861;47.546;19.254;2023-03-01T07:15:35;8.35;;;2.70;;
74620;SDS011;64861;47.546;19.254;2023-03-01T07:18:01;7.45;;;3.13;;
74620;SDS011;64861;47.546;19.254;2023-03-01T07:20:27;6.32;;;2.97;;
74620;SDS011;64861;47.546;19.254;2023-03-01T07:22:52;6.82;;;2.95;;
74620;SDS011;64861;47.546;19.254;2023-03-01T07:25:19;6.55;;;2.95;;
74620;SDS011;64861;47.546;19.254;2023-03-01T07:27:48;6.18;;;2.95;;
74620;SDS011;64861;47.546;19.254;2023-03-01T07:30:14;6.05;;;3.28;;
74620;SDS011;64861;47.546;19.254;2023-03-01T07:32:40;5.90;;;2.70;;
74620;SDS011;64861;47.546;19.254;2023-03-01T07:35:05;5.47;;;2.80;;
74620;SDS011;64861;47.546;19.254;2023-03-01T07:37:31;7.97;;;2.78;;
74620;SDS011;64861;47.546;19.254;2023-03-01T07:39:57;7.53;;;3.13;;
74620;SDS011;64861;47.546;19.254;2023-03-01T07:42:22;5.70;;;2.80;;
74620;SDS011;64861;47.546;19.254;2023-03-01T07:44:48;4.97;;;2.63;;
74620;SDS011;64861;47.546;19.254;2023-03-01T07:47:13;5.78;;;2.78;;
74620;SDS011;64861;47.546;19.254;2023-03-01T07:49:39;7.43;;;3.03;;
74620;SDS011;64861;47.546;19.254;2023-03-01T07:52:04;5.50;;;2.83;;
74620;SDS011;64861;47.546;19.254;2023-03-01T07:54:30;5.35;;;2.53;;
74620;SDS011;64861;47.546;19.254;2023-03-01T07:56:56;5.47;;;2.63;;
74620;SDS011;64861;47.546;19.254;2023-03-01T07:59:22;6.32;;;2.83;;
74620;SDS011;64861;47.546;19.254;2023-03-01T08:01:53;7.22;;;2.83;;
74620;SDS011;64861;47.546;19.254;2023-03-01T08:04:19;6.50;;;2.70;;
74620;SDS011;64861;47.546;19.254;2023-03-01T08:06:45;5.30;;;2.60;;
74620;SDS011;64861;47.546;19.254;2023-03-01T08:09:10;6.70;;;2.83;;
74620;SDS011;64861;47.546;19.254;2023-03-01T08:11:36;6.03;;;2.85;;
74620;SDS011;64861;47.546;19.254;2023-03-01T08:14:01;5.40;;;2.58;;
74620;SDS011;64861;47.546;19.254;2023-03-01T08:16:27;4.97;;;2.60;;
74620;SDS011;64861;47.546;19.254;2023-03-01T08:18:55;5.25;;;2.72;;
74620;SDS011;64861;47.546;19.254;2023-03-01T08:21:24;4.57;;;2.40;;
74620;SDS011;64861;47.546;19.254;2023-03-01T08:23:49;5.63;;;2.70;;
74620;SDS011;64861;47.546;19.254;2023-03-01T08:26:19;8.02;;;2.70;;
74620;SDS011;64861;47.546;19.254;2023-03-01T08:28:45;5.45;;;2.80;;
74620;SDS011;64861;47.546;19.254;2023-03-01T08:31:17;5.40;;;2.40;;
74620;SDS011;64861;47.546;19.254;2023-03-01T08:33:48;4.75;;;2.50;;
74620;SDS011;64861;47.546;19.254;2023-03-01T08:36:20;5.03;;;2.50;;
74620;SDS011;64861;47.546;19.254;2023-03-01T08:38:50;4.75;;;2.17;;
74620;SDS011;64861;47.546;19.254;2023-03-01T08:41:15;6.65;;;2.58;;
74620;SDS011;64861;47.546;19.254;2023-03-01T08:43:41;4.93;;;2.22;;
74620;SDS011;64861;47.546;19.254;2023-03-01T08:46:07;5.35;;;2.80;;
74620;SDS011;64861;47.546;19.254;2023-03-01T08:48:32;4.95;;;2.58;;
74620;SDS011;64861;47.546;19.254;2023-03-01T08:51:06;4.50;;;2.40;;
74620;SDS011;64861;47.546;19.254;2023-03-01T08:53:42;4.35;;;2.40;;
74620;SDS011;64861;47.546;19.254;2023-03-01T08:56:08;5.65;;;2.75;;
74620;SDS011;64861;47.546;19.254;2023-03-01T08:58:34;4.45;;;2.50;;
74620;SDS011;64861;47.546;19.254;2023-03-01T09:01:00;4.90;;;2.55;;
74620;SDS011;64861;47.546;19.254;2023-03-01T09:03:26;6.00;;;2.63;;
74620;SDS011;64861;47.546;19.254;2023-03-01T09:05:52;5.55;;;2.55;;
74620;SDS011;64861;47.546;19.254;2023-03-01T09:08:18;5.65;;;2.40;;
74620;SDS011;64861;47.546;19.254;2023-03-01T09:10:44;4.55;;;2.60;;
74620;SDS011;64861;47.546;19.254;2023-03-01T09:13:10;6.25;;;2.40;;
74620;SDS011;64861;47.546;19.254;2023-03-01T09:15:36;5.55;;;2.63;;
74620;SDS011;64861;47.546;19.254;2023-03-01T09:18:03;4.85;;;2.28;;
74620;SDS011;64861;47.546;19.254;2023-03-01T09:20:29;5.65;;;2.40;;
74620;SDS011;64861;47.546;19.254;2023-03-01T09:22:56;5.60;;;2.63;;
74620;SDS011;64861;47.546;19.254;2023-03-01T09:25:22;6.55;;;2.45;;
74620;SDS011;64861;47.546;19.254;2023-03-01T09:27:51;4.80;;;2.17;;
74620;SDS011;64861;47.546;19.254;2023-03-01T09:30:18;5.45;;;2.28;;
74620;SDS011;64861;47.546;19.254;2023-03-01T09:32:44;4.65;;;2.22;;
74620;SDS011;64861;47.546;19.254;2023-03-01T09:35:10;4.78;;;2.20;;
74620;SDS011;64861;47.546;19.254;2023-03-01T09:37:36;4.10;;;2.10;;
74620;SDS011;64861;47.546;19.254;2023-03-01T09:40:03;6.15;;;2.38;;
74620;SDS011;64861;47.546;19.254;2023-03-01T09:42:31;4.72;;;2.05;;
74620;SDS011;64861;47.546;19.254;2023-03-01T09:45:03;4.40;;;2.30;;
74620;SDS011;64861;47.546;19.254;2023-03-01T09:50:14;4.25;;;2.10;;
74620;SDS011;64861;47.546;19.254;2023-03-01T09:52:47;5.20;;;2.35;;
74620;SDS011;64861;47.546;19.254;2023-03-01T09:55:15;6.32;;;2.20;;
74620;SDS011;64861;47.546;19.254;2023-03-01T09:57:48;3.90;;;2.10;;
74620;SDS011;64861;47.546;19.254;2023-03-01T10:02:57;4.28;;;2.20;;
74620;SDS011;64861;47.546;19.254;2023-03-01T10:08:30;3.97;;;1.92;;
74620;SDS011;64861;47.546;19.254;2023-03-01T10:11:04;4.13;;;1.95;;
74620;SDS011;64861;47.546;19.254;2023-03-01T10:19:27;4.82;;;2.25;;
74620;SDS011;64861;47.546;19.254;2023-03-01T10:22:27;4.07;;;2.10;;
74620;SDS011;64861;47.546;19.254;2023-03-01T10:24:54;5.00;;;2.00;;
74620;SDS011;64861;47.546;19.254;2023-03-01T10:27:26;4.90;;;2.17;;
74620;SDS011;64861;47.546;19.254;2023-03-01T10:32:45;3.65;;;2.05;;
74620;SDS011;64861;47.546;19.254;2023-03-01T10:35:24;3.30;;;1.98;;
74620;SDS011;64861;47.546;19.254;2023-03-01T10:38:14;4.05;;;1.90;;
74620;SDS011;64861;47.546;19.254;2023-03-01T10:40:51;4.35;;;2.10;;
74620;SDS011;64861;47.546;19.254;2023-03-01T10:43:24;3.97;;;2.05;;
74620;SDS011;64861;47.546;19.254;2023-03-01T10:45:53;3.92;;;2.08;;
74620;SDS011;64861;47.546;19.254;2023-03-01T10:48:19;4.03;;;1.95;;
74620;SDS011;64861;47.546;19.254;2023-03-01T10:50:49;4.07;;;2.00;;
74620;SDS011;64861;47.546;19.254;2023-03-01T10:53:21;4.38;;;2.30;;
74620;SDS011;64861;47.546;19.254;2023-03-01T10:55:55;5.03;;;2.35;;
74620;SDS011;64861;47.546;19.254;2023-03-01T11:04:02;6.07;;;2.17;;
74620;SDS011;64861;47.546;19.254;2023-03-01T11:06:31;6.13;;;2.20;;
74620;SDS011;64861;47.546;19.254;2023-03-01T11:09:01;8.65;;;2.15;;
74620;SDS011;64861;47.546;19.254;2023-03-01T11:11:43;6.05;;;2.17;;
74620;SDS011;64861;47.546;19.254;2023-03-01T11:14:17;5.82;;;1.98;;
74620;SDS011;64861;47.546;19.254;2023-03-01T11:16:47;4.13;;;1.92;;
74620;SDS011;64861;47.546;19.254;2023-03-01T11:22:04;3.35;;;1.85;;
74620;SDS011;64861;47.546;19.254;2023-03-01T11:24:40;4.15;;;1.98;;
74620;SDS011;64861;47.546;19.254;2023-03-01T11:27:16;5.03;;;2.40;;
74620;SDS011;64861;47.546;19.254;2023-03-01T11:29:55;7.25;;;1.95;;
74620;SDS011;64861;47.546;19.254;2023-03-01T11:32:32;9.20;;;2.03;;
74620;SDS011;64861;47.546;19.254;2023-03-01T11:35:13;4.28;;;2.20;;
74620;SDS011;64861;47.546;19.254;2023-03-01T11:40:29;8.63;;;2.15;;
74620;SDS011;64861;47.546;19.254;2023-03-01T11:43:03;4.80;;;2.15;;
74620;SDS011;64861;47.546;19.254;2023-03-01T11:51:19;4.10;;;2.00;;
74620;SDS011;64861;47.546;19.254;2023-03-01T11:53:51;4.13;;;2.00;;
74620;SDS011;64861;47.546;19.254;2023-03-01T11:56:40;4.72;;;2.33;;
74620;SDS011;64861;47.546;19.254;2023-03-01T11:59:32;5.45;;;2.60;;
74620;SDS011;64861;47.546;19.254;2023-03-01T12:02:18;5.78;;;2.10;;
74620;SDS011;64861;47.546;19.254;2023-03-01T12:05:06;4.25;;;2.10;;
74620;SDS011;64861;47.546;19.254;2023-03-01T12:18:59;3.63;;;1.73;;
74620;SDS011;64861;47.546;19.254;2023-03-01T12:21:49;6.53;;;2.00;;
74620;SDS011;64861;47.546;19.254;2023-03-01T12:24:35;6.03;;;2.40;;
74620;SDS011;64861;47.546;19.254;2023-03-01T12:50:52;5.38;;;2.15;;
74620;SDS011;64861;47.546;19.254;2023-03-01T12:55:48;6.20;;;2.00;;
74620;SDS011;64861;47.546;19.254;2023-03-01T12:58:35;3.42;;;1.80;;
74620;SDS011;64861;47.546;19.254;2023-03-01T13:09:39;4.25;;;2.03;;
74620;SDS011;64861;47.546;19.254;2023-03-01T13:15:55;5.53;;;1.70;;
74620;SDS011;64861;47.546;19.254;2023-03-01T13:18:03;4.22;;;2.03;;
74620;SDS011;64861;47.546;19.254;2023-03-01T13:20:51;4.22;;;2.08;;
74620;SDS011;64861;47.546;19.254;2023-03-01T13:31:01;4.43;;;1.98;;
74620;SDS011;64861;47.546;19.254;2023-03-01T13:35:54;4.65;;;1.90;;
74620;SDS011;64861;47.546;19.254;2023-03-01T13:38:37;4.10;;;1.80;;
74620;SDS011;64861;47.546;19.254;2023-03-01T13:41:10;4.03;;;1.85;;
74620;SDS011;64861;47.546;19.254;2023-03-01T13:43:40;3.85;;;1.77;;
74620;SDS011;64861;47.546;19.254;2023-03-01T13:46:15;3.25;;;1.63;;
74620;SDS011;64861;47.546;19.254;2023-03-01T13:48:41;4.15;;;1.98;;
74620;SDS011;64861;47.546;19.254;2023-03-01T13:51:10;4.07;;;1.65;;
74620;SDS011;64861;47.546;19.254;2023-03-01T13:53:42;5.85;;;1.83;;
74620;SDS011;64861;47.546;19.254;2023-03-01T13:56:15;4.15;;;1.75;;
74620;SDS011;64861;47.546;19.254;2023-03-01T14:01:23;3.70;;;1.60;;
74620;SDS011;64861;47.546;19.254;2023-03-01T14:03:51;3.40;;;1.42;;
74620;SDS011;64861;47.546;19.254;2023-03-01T14:06:18;4.97;;;1.80;;
74620;SDS011;64861;47.546;19.254;2023-03-01T14:08:47;5.18;;;1.83;;
74620;SDS011;64861;47.546;19.254;2023-03-01T14:20:07;3.25;;;1.63;;
74620;SDS011;64861;47.546;19.254;2023-03-01T14:22:36;2.95;;;1.48;;
74620;SDS011;64861;47.546;19.254;2023-03-01T14:25:27;3.97;;;1.60;;
74620;SDS011;64861;47.546;19.254;2023-03-01T14:28:03;4.15;;;1.90;;
74620;SDS011;64861;47.546;19.254;2023-03-01T14:30:43;3.05;;;1.40;;
74620;SDS011;64861;47.546;19.254;2023-03-01T14:33:43;3.72;;;1.70;;
74620;SDS011;64861;47.546;19.254;2023-03-01T14:36:09;3.58;;;1.50;;
74620;SDS011;64861;47.546;19.254;2023-03-01T14:38:39;4.63;;;1.90;;
74620;SDS011;64861;47.546;19.254;2023-03-01T14:43:43;3.95;;;1.75;;
74620;SDS011;64861;47.546;19.254;2023-03-01T14:49:17;4.38;;;1.88;;
74620;SDS011;64861;47.546;19.254;2023-03-01T14:52:46;4.22;;;1.73;;
74620;SDS011;64861;47.546;19.254;2023-03-01T14:54:46;3.50;;;1.67;;
74620;SDS011;64861;47.546;19.254;2023-03-01T14:57:16;5.78;;;1.60;;
74620;SDS011;64861;47.546;19.254;2023-03-01T14:59:44;7.00;;;1.65;;
74620;SDS011;64861;47.546;19.254;2023-03-01T15:02:17;8.52;;;1.70;;
74620;SDS011;64861;47.546;19.254;2023-03-01T15:04:46;5.68;;;1.77;;
74620;SDS011;64861;47.546;19.254;2023-03-01T15:07:14;9.85;;;1.95;;
74620;SDS011;64861;47.546;19.254;2023-03-01T15:09:40;4.05;;;1.58;;
74620;SDS011;64861;47.546;19.254;2023-03-01T15:14:54;4.35;;;1.48;;
74620;SDS011;64861;47.546;19.254;2023-03-01T15:17:34;7.07;;;1.65;;
74620;SDS011;64861;47.546;19.254;2023-03-01T15:20:04;8.07;;;1.90;;
74620;SDS011;64861;47.546;19.254;2023-03-01T15:22:32;6.55;;;1.95;;
74620;SDS011;64861;47.546;19.254;2023-03-01T15:24:58;7.15;;;1.75;;
74620;SDS011;64861;47.546;19.254;2023-03-01T15:27:24;4.35;;;1.40;;
74620;SDS011;64861;47.546;19.254;2023-03-01T15:32:42;5.55;;;1.63;;
74620;SDS011;64861;47.546;19.254;2023-03-01T15:41:03;4.38;;;1.92;;
74620;SDS011;64861;47.546;19.254;2023-03-01T15:43:43;5.30;;;1.60;;
74620;SDS011;64861;47.546;19.254;2023-03-01T15:49:03;4.53;;;1.75;;
74620;SDS011;64861;47.546;19.254;2023-03-01T15:51:43;4.13;;;1.65;;
74620;SDS011;64861;47.546;19.254;2023-03-01T15:54:17;4.78;;;1.50;;
74620;SDS011;64861;47.546;19.254;2023-03-01T15:56:46;6.60;;;1.98;;
74620;SDS011;64861;47.546;19.254;2023-03-01T15:59:12;4.45;;;1.67;;
74620;SDS011;64861;47.546;19.254;2023-03-01T16:01:41;3.03;;;1.50;;
74620;SDS011;64861;47.546;19.254;2023-03-01T16:04:08;7.15;;;2.17;;
74620;SDS011;64861;47.546;19.254;2023-03-01T16:06:36;9.55;;;2.20;;
74620;SDS011;64861;47.546;19.254;2023-03-01T16:09:04;4.60;;;1.70;;
74620;SDS011;64861;47.546;19.254;2023-03-01T16:11:29;8.73;;;2.00;;
74620;SDS011;64861;47.546;19.254;2023-03-01T16:13:57;5.35;;;1.90;;
74620;SDS011;64861;47.546;19.254;2023-03-01T16:16:23;4.47;;;1.80;;
74620;SDS011;64861;47.546;19.254;2023-03-01T16:18:49;4.45;;;1.83;;
74620;SDS011;64861;47.546;19.254;2023-03-01T16:21:22;5.93;;;1.63;;
74620;SDS011;64861;47.546;19.254;2023-03-01T16:23:48;8.15;;;2.08;;
74620;SDS011;64861;47.546;19.254;2023-03-01T16:26:13;4.47;;;1.90;;
74620;SDS011;64861;47.546;19.254;2023-03-01T16:28:42;6.13;;;1.98;;
74620;SDS011;64861;47.546;19.254;2023-03-01T16:31:08;6.55;;;1.88;;
74620;SDS011;64861;47.546;19.254;2023-03-01T16:33:34;4.25;;;1.90;;
74620;SDS011;64861;47.546;19.254;2023-03-01T16:36:05;4.75;;;2.10;;
74620;SDS011;64861;47.546;19.254;2023-03-01T16:38:32;5.43;;;1.80;;
74620;SDS011;64861;47.546;19.254;2023-03-01T16:40:58;6.40;;;1.80;;
74620;SDS011;64861;47.546;19.254;2023-03-01T16:43:23;6.35;;;2.15;;
74620;SDS011;64861;47.546;19.254;2023-03-01T16:45:49;4.63;;;1.70;;
74620;SDS011;64861;47.546;19.254;2023-03-01T16:48:14;5.35;;;2.00;;
74620;SDS011;64861;47.546;19.254;2023-03-01T16:50:39;7.32;;;2.10;;
74620;SDS011;64861;47.546;19.254;2023-03-01T16:53:05;4.75;;;2.17;;
74620;SDS011;64861;47.546;19.254;2023-03-01T16:55:31;4.75;;;1.92;;
74620;SDS011;64861;47.546;19.254;2023-03-01T16:57:56;5.22;;;1.88;;
74620;SDS011;64861;47.546;19.254;2023-03-01T17:00:22;7.85;;;2.17;;